General Aviation Weather

Text Reports

Enter one or more of the following location identifiers separated by a space:

Zip Code, Four-Character ICAO or Three-Character IATA airport codes.

METAR - Aviation Routine Weather Report
KD50 - Crosby, North Dakota
Updated at 8:55 AM GMT on February 14, 2016 (2:55 AM CST):
METAR KD50 140855Z AUTO 28005KT 2 1/2SM -SN FEW001 OVC008 M04/M04 A2977 RMK AO2
TAF - Terminal Area Forecast
KD50 - Crosby, North Dakota
Updated at 8:55 AM GMT on February 14, 2016 (2:55 AM CST):
No TAF is currently available for this location.
Decoded:
No decoded TAF is available.
PIREP - Pilot Weather Report
KD50 - Crosby, North Dakota
Updated at 8:55 AM GMT on February 14, 2016 (2:55 AM CST):
No PIREP is currently available for this location.
AIRMET - Airmens Meteorological Information
KD50 - Crosby, North Dakota
Updated at 8:55 AM GMT on February 14, 2016 (2:55 AM CST):
No AIRMET is currently available for this location.
SIGMET - Significant Meteorological Information
KD50 - Crosby, North Dakota
Updated at 8:55 AM GMT on February 14, 2016 (2:55 AM CST):
No SIGMET is currently available for this location.
NOTAM - Notice to Airmen
KD50 - Crosby, North Dakota
Updated at 8:55 AM GMT on February 14, 2016 (2:55 AM CST):
No NOTAM is currently available for this location.
Forecast Area
KD50 - Crosby, North Dakota
Updated at 8:55 AM GMT on February 14, 2016 (2:55 AM CST):
No NOTAM is currently available for this location.
Aviation Weather Maps